Time;durP1;ratioP1;P1;durP2;ratioP2;P2;SDS_P1;SDS_P2;PMS_P1;PMS_P2;Temp;Humidity;BMP_temperature;BMP_pressure;BME280_temperature;BME280_humidity;BME280_pressure;Samples;Min_cycle;Max_cycle;Signal;HPM_P1;HPM_P2
2022/12/21 00:00:19;;;;;;;61.85;56.10;;;;;;;;;;5049574;28;20358;-51
2022/12/21 00:02:45;;;;;;;59.42;53.80;;;;;;;;;;5056378;23;20033;-62
2022/12/21 00:05:11;;;;;;;60.78;55.28;;;;;;;;;;5029540;28;20040;-62
2022/12/21 00:07:37;;;;;;;60.78;55.10;;;;;;;;;;5028389;28;20128;-62
2022/12/21 00:10:03;;;;;;;59.63;54.28;;;;;;;;;;5029937;28;20030;-60
2022/12/21 00:12:29;;;;;;;62.75;57.00;;;;;;;;;;5030076;28;20440;-62
2022/12/21 00:14:55;;;;;;;59.63;54.38;;;;;;;;;;5011628;28;20029;-61
2022/12/21 00:17:21;;;;;;;59.30;53.63;;;;;;;;;;5030156;28;20076;-62
2022/12/21 00:19:47;;;;;;;58.60;52.97;;;;;;;;;;5012486;28;20040;-62
2022/12/21 00:22:13;;;;;;;57.25;52.00;;;;;;;;;;5030597;28;20025;-62
2022/12/21 00:24:39;;;;;;;56.58;51.38;;;;;;;;;;5029757;28;20477;-62
2022/12/21 00:27:05;;;;;;;61.08;55.22;;;;;;;;;;5031153;28;20032;-62
2022/12/21 00:29:31;;;;;;;58.92;53.20;;;;;;;;;;5016980;28;20026;-63
2022/12/21 00:31:57;;;;;;;59.25;53.65;;;;;;;;;;5016269;28;20030;-63
2022/12/21 00:34:23;;;;;;;57.88;52.38;;;;;;;;;;5033418;28;20505;-63
2022/12/21 00:36:50;;;;;;;55.10;49.63;;;;;;;;;;5034029;28;20122;-64
2022/12/21 00:39:17;;;;;;;58.38;53.08;;;;;;;;;;5016343;28;20021;-63
2022/12/21 00:41:43;;;;;;;59.15;53.22;;;;;;;;;;5016066;28;20079;-62
2022/12/21 00:44:10;;;;;;;55.90;50.53;;;;;;;;;;5033225;28;20033;-61
2022/12/21 00:46:36;;;;;;;56.08;50.72;;;;;;;;;;5033932;28;20037;-63
2022/12/21 00:49:04;;;;;;;52.03;46.78;;;;;;;;;;5033755;28;20018;-61
2022/12/21 00:51:30;;;;;;;51.45;46.17;;;;;;;;;;5033769;28;20021;-64
2022/12/21 00:53:57;;;;;;;54.00;48.72;;;;;;;;;;5015178;28;20041;-61
2022/12/21 00:56:24;;;;;;;55.33;49.95;;;;;;;;;;5033647;28;20112;-63
2022/12/21 00:58:50;;;;;;;55.60;50.40;;;;;;;;;;5015894;28;20077;-62
2022/12/21 01:01:17;;;;;;;50.85;45.70;;;;;;;;;;5015726;28;20025;-62
2022/12/21 01:03:43;;;;;;;52.75;47.45;;;;;;;;;;5014832;28;20033;-60
2022/12/21 01:06:20;;;;;;;52.85;47.65;;;;;;;;;;5033474;28;20486;-61
2022/12/21 01:08:46;;;;;;;51.60;46.40;;;;;;;;;;5015652;28;20032;-63
2022/12/21 01:11:13;;;;;;;52.45;46.75;;;;;;;;;;5033554;28;20029;-63
2022/12/21 01:13:39;;;;;;;51.42;46.33;;;;;;;;;;5032571;28;20471;-60
2022/12/21 01:16:13;;;;;;;50.15;45.13;;;;;;;;;;5033169;28;20109;-60
2022/12/21 01:18:39;;;;;;;53.42;47.05;;;;;;;;;;5033399;28;20060;-62
2022/12/21 01:21:05;;;;;;;50.22;44.83;;;;;;;;;;5033018;28;20053;-61
2022/12/21 01:23:31;;;;;;;53.97;46.60;;;;;;;;;;5014640;28;20025;-62
2022/12/21 01:25:57;;;;;;;49.78;44.78;;;;;;;;;;5033062;28;20378;-62
2022/12/21 01:28:24;;;;;;;50.63;45.25;;;;;;;;;;5032902;28;20060;-63
2022/12/21 01:30:50;;;;;;;49.90;44.58;;;;;;;;;;5015268;28;20026;-62
2022/12/21 01:33:18;;;;;;;52.33;46.55;;;;;;;;;;5014211;28;20032;-59
2022/12/21 01:35:44;;;;;;;52.45;46.70;;;;;;;;;;5015052;28;20037;-62
2022/12/21 01:38:11;;;;;;;53.13;46.47;;;;;;;;;;5032483;28;20052;-62
2022/12/21 01:40:37;;;;;;;52.47;46.90;;;;;;;;;;5014975;28;20051;-63
2022/12/21 01:43:15;;;;;;;52.92;47.38;;;;;;;;;;5031818;28;20021;-60
2022/12/21 01:45:41;;;;;;;53.60;47.05;;;;;;;;;;5032674;28;20485;-62
2022/12/21 01:48:11;;;;;;;52.72;47.35;;;;;;;;;;5015045;28;20042;-62
2022/12/21 01:50:43;;;;;;;53.22;47.72;;;;;;;;;;5032941;28;20021;-60
2022/12/21 01:53:20;;;;;;;51.75;46.10;;;;;;;;;;5031961;28;20079;-62
2022/12/21 01:55:48;;;;;;;51.97;45.97;;;;;;;;;;5032669;28;20446;-62
2022/12/21 01:58:14;;;;;;;54.10;47.88;;;;;;;;;;5032424;28;20040;-61
2022/12/21 02:00:40;;;;;;;52.35;46.65;;;;;;;;;;5032375;28;20033;-62
2022/12/21 02:03:08;;;;;;;59.05;46.17;;;;;;;;;;5031352;28;20033;-62
2022/12/21 02:05:36;;;;;;;54.30;46.80;;;;;;;;;;5031979;28;20104;-62
2022/12/21 02:08:04;;;;;;;53.08;47.17;;;;;;;;;;5032250;28;20474;-60
2022/12/21 02:10:30;;;;;;;51.78;46.20;;;;;;;;;;5032352;28;20076;-62
2022/12/21 02:13:00;;;;;;;50.47;45.05;;;;;;;;;;5014211;28;20037;-63
2022/12/21 02:15:33;;;;;;;54.15;48.38;;;;;;;;;;5013911;28;20058;-62
2022/12/21 02:18:05;;;;;;;53.38;46.42;;;;;;;;;;5032068;28;20476;-63
2022/12/21 02:20:50;;;;;;;53.47;46.72;;;;;;;;;;5032146;28;20505;-62
2022/12/21 02:23:16;;;;;;;53.00;46.88;;;;;;;;;;5031243;28;20125;-63
2022/12/21 02:26:00;;;;;;;54.80;46.63;;;;;;;;;;5031979;28;20025;-64
2022/12/21 02:28:34;;;;;;;54.05;46.97;;;;;;;;;;5031910;28;20029;-63
2022/12/21 02:31:19;;;;;;;59.85;46.85;;;;;;;;;;5031860;28;20037;-63
2022/12/21 02:33:54;;;;;;;56.15;45.35;;;;;;;;;;5031167;28;20120;-62
2022/12/21 02:36:26;;;;;;;56.13;44.90;;;;;;;;;;5031702;28;20049;-65
2022/12/21 02:39:02;;;;;;;58.53;47.50;;;;;;;;;;5031852;28;20436;-63
2022/12/21 02:41:33;;;;;;;62.90;46.83;;;;;;;;;;5013933;28;20116;-62
2022/12/21 02:44:13;;;;;;;56.78;47.83;;;;;;;;;;5030984;28;20021;-63
2022/12/21 02:46:42;;;;;;;60.42;47.70;;;;;;;;;;5031877;28;20017;-62
2022/12/21 02:49:15;;;;;;;59.67;45.13;;;;;;;;;;5031370;28;20027;-65
2022/12/21 02:51:46;;;;;;;61.50;49.63;;;;;;;;;;5030922;28;20029;-64
2022/12/21 02:54:13;;;;;;;58.15;46.58;;;;;;;;;;5030735;28;20124;-62
2022/12/21 02:56:39;;;;;;;56.45;45.80;;;;;;;;;;5013607;28;20375;-63
2022/12/21 02:59:05;;;;;;;61.45;47.95;;;;;;;;;;5013867;28;20064;-62
2022/12/21 03:01:47;;;;;;;54.88;47.05;;;;;;;;;;5031502;28;20084;-62
2022/12/21 03:04:21;;;;;;;61.05;48.88;;;;;;;;;;5030583;28;20068;-64
2022/12/21 03:06:56;;;;;;;64.00;48.92;;;;;;;;;;5031291;28;20101;-65
2022/12/21 03:09:51;;;;;;;56.97;46.67;;;;;;;;;;5031460;28;20405;-62
2022/12/21 03:12:20;;;;;;;58.35;47.08;;;;;;;;;;5031035;28;20025;-63
2022/12/21 03:14:53;;;;;;;58.95;47.25;;;;;;;;;;5030399;28;20025;-63
2022/12/21 03:17:37;;;;;;;57.88;46.17;;;;;;;;;;5031047;28;20050;-63
2022/12/21 03:20:22;;;;;;;65.55;47.05;;;;;;;;;;5030909;28;20029;-64
2022/12/21 03:23:08;;;;;;;67.07;48.75;;;;;;;;;;5013098;28;20022;-63
2022/12/21 03:25:43;;;;;;;56.00;45.95;;;;;;;;;;5031097;28;20060;-63
2022/12/21 03:28:11;;;;;;;58.55;46.53;;;;;;;;;;5031159;28;20022;-63
2022/12/21 03:30:49;;;;;;;60.10;47.50;;;;;;;;;;5013353;28;20025;-62
2022/12/21 03:33:18;;;;;;;59.63;47.80;;;;;;;;;;5012272;28;20068;-62
2022/12/21 03:35:44;;;;;;;;;;;;;;;;;;5031630;28;20037;-62
2022/12/21 03:38:14;;;;;;;60.28;46.20;;;;;;;;;;5030847;28;19905;-61
2022/12/21 03:40:41;;;;;;;58.83;45.33;;;;;;;;;;5012965;28;20029;-62
2022/12/21 03:43:10;;;;;;;61.72;47.58;;;;;;;;;;5012299;28;20095;-64
2022/12/21 03:45:40;;;;;;;56.90;42.53;;;;;;;;;;5030597;28;20024;-62
2022/12/21 03:48:08;;;;;;;59.30;45.15;;;;;;;;;;5012954;28;20033;-63
2022/12/21 03:50:38;;;;;;;58.15;43.80;;;;;;;;;;5012830;28;20032;-63
2022/12/21 03:53:04;;;;;;;56.67;43.22;;;;;;;;;;5012343;28;20029;-64
2022/12/21 03:55:33;;;;;;;60.30;44.83;;;;;;;;;;5013060;28;20053;-61
2022/12/21 03:58:00;;;;;;;56.08;43.92;;;;;;;;;;5030956;28;20048;-62
2022/12/21 04:00:27;;;;;;;56.60;44.83;;;;;;;;;;5030679;28;20033;-63
2022/12/21 04:02:53;;;;;;;58.58;45.67;;;;;;;;;;5033932;28;20025;-63
2022/12/21 04:05:32;;;;;;;61.08;46.53;;;;;;;;;;5034211;28;20443;-63
2022/12/21 04:07:58;;;;;;;59.35;45.05;;;;;;;;;;5034617;28;20468;-63
2022/12/21 04:10:25;;;;;;;56.10;44.50;;;;;;;;;;5034616;28;20052;-63
2022/12/21 04:12:51;;;;;;;59.72;46.85;;;;;;;;;;5016637;28;20032;-62
2022/12/21 04:15:19;;;;;;;56.08;42.38;;;;;;;;;;5016064;28;20026;-63
2022/12/21 04:17:46;;;;;;;56.55;41.97;;;;;;;;;;5034306;28;20028;-62
2022/12/21 04:20:16;;;;;;;58.35;43.47;;;;;;;;;;5034350;28;20091;-65
2022/12/21 04:28:27;;;;;;;55.60;45.10;;;;;;;;;;5034766;28;20039;-63
2022/12/21 04:30:53;;;;;;;59.97;44.58;;;;;;;;;;5034497;28;20029;-63
2022/12/21 04:33:20;;;;;;;58.97;45.28;;;;;;;;;;5033239;28;20034;-64
2022/12/21 04:38:32;;;;;;;51.05;43.75;;;;;;;;;;5035104;28;20065;-61
2022/12/21 04:40:58;;;;;;;55.63;43.20;;;;;;;;;;5034425;28;20029;-62
2022/12/21 04:43:25;;;;;;;50.78;42.30;;;;;;;;;;5033835;28;20488;-61
2022/12/21 04:46:00;;;;;;;57.03;45.10;;;;;;;;;;5034642;28;20032;-62
2022/12/21 04:48:26;;;;;;;53.70;43.03;;;;;;;;;;5034103;28;20609;-62
2022/12/21 04:50:52;;;;;;;55.13;44.63;;;;;;;;;;5034120;28;20108;-63
2022/12/21 04:53:18;;;;;;;57.03;46.00;;;;;;;;;;5032874;28;20056;-62
2022/12/21 04:55:48;;;;;;;55.70;44.22;;;;;;;;;;5033412;28;20104;-62
2022/12/21 04:58:14;;;;;;;55.97;43.55;;;;;;;;;;5033690;28;20090;-63
2022/12/21 05:00:40;;;;;;;53.17;44.08;;;;;;;;;;5033626;28;20037;-62
2022/12/21 05:03:06;;;;;;;58.60;45.33;;;;;;;;;;5032314;28;20466;-63
2022/12/21 05:05:32;;;;;;;55.80;43.67;;;;;;;;;;5033325;28;20029;-62
2022/12/21 05:07:58;;;;;;;59.25;45.60;;;;;;;;;;5033507;28;20026;-64
2022/12/21 05:10:24;;;;;;;55.65;45.08;;;;;;;;;;5033851;28;20123;-61
2022/12/21 05:12:50;;;;;;;56.78;44.88;;;;;;;;;;5032777;28;20029;-62
2022/12/21 05:15:16;;;;;;;58.72;46.15;;;;;;;;;;5032633;28;20022;-63
2022/12/21 05:17:43;;;;;;;63.42;47.22;;;;;;;;;;5033566;28;20073;-61
2022/12/21 05:20:09;;;;;;;61.47;47.20;;;;;;;;;;5033866;28;20112;-63
2022/12/21 05:22:35;;;;;;;60.63;45.38;;;;;;;;;;5033516;28;20032;-66
2022/12/21 05:25:01;;;;;;;61.35;46.63;;;;;;;;;;5015248;28;20025;-62
2022/12/21 05:27:27;;;;;;;65.57;47.20;;;;;;;;;;5034326;28;20440;-63
2022/12/21 05:29:53;;;;;;;64.63;47.65;;;;;;;;;;5033489;28;20029;-62
2022/12/21 05:32:19;;;;;;;65.85;46.17;;;;;;;;;;5033465;28;20014;-63
2022/12/21 05:34:45;;;;;;;65.10;47.90;;;;;;;;;;5032850;28;20030;-63
2022/12/21 05:37:11;;;;;;;61.55;47.63;;;;;;;;;;5033110;28;20025;-64
2022/12/21 05:39:37;;;;;;;69.40;47.33;;;;;;;;;;5032494;28;20080;-63
2022/12/21 05:42:03;;;;;;;63.00;48.40;;;;;;;;;;5033156;28;20034;-65
2022/12/21 05:44:29;;;;;;;87.40;50.92;;;;;;;;;;5032609;28;20030;-64
2022/12/21 05:46:55;;;;;;;83.13;51.85;;;;;;;;;;5033184;28;20021;-65
2022/12/21 05:49:21;;;;;;;74.53;50.50;;;;;;;;;;5033061;28;20334;-64
2022/12/21 05:51:48;;;;;;;82.30;50.80;;;;;;;;;;5032918;28;20154;-62
2022/12/21 05:54:14;;;;;;;88.15;50.75;;;;;;;;;;5032090;28;20037;-65
2022/12/21 05:56:40;;;;;;;92.90;51.75;;;;;;;;;;5032659;28;20339;-64
2022/12/21 05:59:06;;;;;;;90.40;50.05;;;;;;;;;;5032578;28;20028;-64
2022/12/21 06:01:32;;;;;;;116.65;53.67;;;;;;;;;;5032715;28;20112;-63
2022/12/21 06:03:58;;;;;;;86.68;51.30;;;;;;;;;;5054591;23;20056;-59
2022/12/21 06:06:24;;;;;;;83.70;48.55;;;;;;;;;;5033257;28;20531;-58
2022/12/21 06:08:50;;;;;;;83.07;47.38;;;;;;;;;;5031637;28;20096;-59
2022/12/21 06:11:17;;;;;;;79.78;47.40;;;;;;;;;;5031768;28;20025;-60
2022/12/21 06:13:43;;;;;;;79.95;46.28;;;;;;;;;;5032013;28;20030;-59
2022/12/21 06:16:11;;;;;;;71.38;46.10;;;;;;;;;;5032822;28;20030;-58
2022/12/21 06:18:37;;;;;;;69.20;48.55;;;;;;;;;;5014974;28;20033;-60
2022/12/21 06:21:03;;;;;;;83.10;50.80;;;;;;;;;;5032977;28;20061;-60
2022/12/21 06:23:29;;;;;;;83.10;47.97;;;;;;;;;;5014240;28;20022;-58
2022/12/21 06:25:59;;;;;;;68.95;48.30;;;;;;;;;;5014930;28;20036;-56
2022/12/21 06:28:26;;;;;;;78.07;49.78;;;;;;;;;;5029962;28;20024;-55
2022/12/21 06:30:52;;;;;;;64.57;47.58;;;;;;;;;;5031837;28;20025;-58
2022/12/21 06:33:19;;;;;;;68.88;50.40;;;;;;;;;;5014030;28;20022;-57
2022/12/21 06:35:45;;;;;;;68.43;47.38;;;;;;;;;;5032329;28;20026;-60
2022/12/21 06:38:11;;;;;;;95.95;52.90;;;;;;;;;;5032206;28;20040;-62
2022/12/21 06:40:37;;;;;;;69.35;50.35;;;;;;;;;;5014459;28;20132;-61
2022/12/21 06:43:03;;;;;;;62.58;48.85;;;;;;;;;;5031368;28;20018;-57
2022/12/21 06:45:29;;;;;;;77.70;52.22;;;;;;;;;;5013837;28;20500;-57
2022/12/21 06:47:55;;;;;;;64.10;48.75;;;;;;;;;;5032027;28;20021;-60
2022/12/21 06:50:22;;;;;;;65.97;48.45;;;;;;;;;;5031939;28;20067;-59
2022/12/21 06:52:48;;;;;;;75.03;49.10;;;;;;;;;;5031736;28;20068;-55
2022/12/21 06:55:15;;;;;;;66.65;48.78;;;;;;;;;;5030872;28;20511;-60
2022/12/21 06:57:41;;;;;;;62.35;45.83;;;;;;;;;;5031694;28;20032;-58
2022/12/21 07:00:09;;;;;;;56.58;44.28;;;;;;;;;;5031578;28;20449;-57
2022/12/21 07:02:35;;;;;;;55.15;45.10;;;;;;;;;;5013639;28;20021;-62
2022/12/21 07:05:01;;;;;;;56.33;44.75;;;;;;;;;;5012966;28;20029;-56
2022/12/21 07:07:27;;;;;;;59.78;45.38;;;;;;;;;;5031876;28;20021;-61
2022/12/21 07:09:53;;;;;;;48.03;42.65;;;;;;;;;;5013894;28;20022;-59
2022/12/21 07:12:19;;;;;;;55.58;43.58;;;;;;;;;;5031487;28;20458;-60
2022/12/21 07:14:45;;;;;;;52.83;43.38;;;;;;;;;;5030852;28;20033;-62
2022/12/21 07:17:11;;;;;;;52.67;43.13;;;;;;;;;;5013641;28;20382;-59
2022/12/21 07:19:37;;;;;;;45.58;40.70;;;;;;;;;;5013404;28;20025;-60
2022/12/21 07:22:03;;;;;;;52.25;41.40;;;;;;;;;;5032496;28;20040;-61
2022/12/21 07:24:29;;;;;;;49.70;42.20;;;;;;;;;;5013484;28;20120;-53
2022/12/21 07:26:55;;;;;;;49.47;41.20;;;;;;;;;;5031141;28;20474;-56
2022/12/21 07:29:21;;;;;;;52.10;43.08;;;;;;;;;;5021964;28;20025;-56
2022/12/21 07:31:47;;;;;;;49.20;41.53;;;;;;;;;;5051279;28;20041;-55
2022/12/21 07:34:13;;;;;;;46.45;40.85;;;;;;;;;;5032261;28;20037;-56
2022/12/21 07:36:39;;;;;;;50.33;42.17;;;;;;;;;;5050872;28;20024;-59
2022/12/21 07:39:05;;;;;;;52.75;44.22;;;;;;;;;;5033327;28;20021;-60
2022/12/21 07:41:31;;;;;;;48.45;41.22;;;;;;;;;;5033289;28;20029;-59
2022/12/21 07:43:57;;;;;;;51.13;41.05;;;;;;;;;;5050272;28;20021;-60
2022/12/21 07:46:23;;;;;;;56.10;43.80;;;;;;;;;;5051717;28;20354;-61
2022/12/21 07:48:49;;;;;;;50.40;42.58;;;;;;;;;;5051111;28;20032;-62
2022/12/21 07:51:15;;;;;;;47.85;40.80;;;;;;;;;;5051190;28;20029;-59
2022/12/21 07:53:41;;;;;;;58.67;44.78;;;;;;;;;;5050337;28;20021;-59
2022/12/21 07:56:12;;;;;;;48.65;43.38;;;;;;;;;;5051106;28;20108;-61
2022/12/21 07:58:38;;;;;;;48.38;41.35;;;;;;;;;;5033151;28;20074;-59
2022/12/21 08:01:14;;;;;;;49.88;42.40;;;;;;;;;;5050904;28;20036;-59
2022/12/21 08:03:42;;;;;;;49.05;41.85;;;;;;;;;;5021787;28;20040;-60
2022/12/21 08:06:08;;;;;;;55.72;47.88;;;;;;;;;;5013423;28;20026;-58
2022/12/21 08:08:34;;;;;;;55.60;45.75;;;;;;;;;;5031312;28;20100;-61
2022/12/21 08:11:01;;;;;;;50.05;41.40;;;;;;;;;;5031132;28;20394;-59
2022/12/21 08:13:27;;;;;;;47.70;42.38;;;;;;;;;;5030181;28;20591;-59
2022/12/21 08:16:03;;;;;;;54.88;42.80;;;;;;;;;;5031287;28;20437;-59
2022/12/21 08:18:29;;;;;;;54.60;44.13;;;;;;;;;;5031067;28;20104;-59
2022/12/21 08:20:55;;;;;;;54.17;44.35;;;;;;;;;;5030860;28;20108;-52
2022/12/21 08:23:21;;;;;;;50.25;42.90;;;;;;;;;;5030149;28;20057;-63
2022/12/21 08:25:47;;;;;;;47.95;41.72;;;;;;;;;;5013162;28;20075;-62
2022/12/21 08:28:13;;;;;;;58.13;44.17;;;;;;;;;;5031038;28;20366;-64
2022/12/21 08:30:40;;;;;;;60.35;44.92;;;;;;;;;;5030761;28;20033;-55
2022/12/21 08:33:06;;;;;;;57.00;45.22;;;;;;;;;;5029794;28;20087;-53
2022/12/21 08:35:32;;;;;;;53.53;43.60;;;;;;;;;;5030376;28;20034;-58
2022/12/21 08:37:58;;;;;;;46.80;39.85;;;;;;;;;;5031887;28;20444;-57
2022/12/21 08:40:24;;;;;;;47.45;38.40;;;;;;;;;;5030914;28;20025;-59
2022/12/21 08:42:50;;;;;;;43.22;38.58;;;;;;;;;;5012965;28;20056;-58
2022/12/21 08:45:16;;;;;;;41.13;36.85;;;;;;;;;;5029982;28;20442;-55
2022/12/21 08:47:42;;;;;;;39.35;35.35;;;;;;;;;;5030343;28;20029;-58
2022/12/21 08:50:08;;;;;;;46.88;36.60;;;;;;;;;;5034009;28;20033;-59
2022/12/21 08:52:34;;;;;;;43.50;36.45;;;;;;;;;;5033628;28;20033;-56
2022/12/21 08:55:00;;;;;;;37.47;33.53;;;;;;;;;;5016139;28;20030;-59
2022/12/21 08:57:26;;;;;;;40.85;35.42;;;;;;;;;;5016036;28;20033;-60
2022/12/21 08:59:52;;;;;;;40.33;34.55;;;;;;;;;;5034167;28;20026;-59
2022/12/21 09:02:18;;;;;;;40.10;35.78;;;;;;;;;;5016147;28;20496;-59
2022/12/21 09:04:44;;;;;;;39.17;34.78;;;;;;;;;;5015584;28;20033;-56
2022/12/21 09:07:11;;;;;;;46.70;37.00;;;;;;;;;;5016141;28;20071;-55
2022/12/21 09:09:37;;;;;;;38.55;33.80;;;;;;;;;;5016202;28;20032;-59
2022/12/21 09:12:03;;;;;;;40.67;36.53;;;;;;;;;;5033765;28;20037;-57
2022/12/21 09:14:29;;;;;;;41.00;36.78;;;;;;;;;;5015477;28;20482;-61
2022/12/21 09:16:55;;;;;;;46.95;36.75;;;;;;;;;;5034034;28;20025;-57
2022/12/21 09:19:21;;;;;;;48.33;39.20;;;;;;;;;;5016183;28;20541;-59
2022/12/21 09:21:47;;;;;;;45.58;40.65;;;;;;;;;;5034092;28;20034;-60
2022/12/21 09:24:14;;;;;;;48.00;41.55;;;;;;;;;;5033214;28;20021;-59
2022/12/21 09:26:41;;;;;;;45.05;40.50;;;;;;;;;;5033821;28;20594;-59
2022/12/21 09:29:09;;;;;;;48.78;40.85;;;;;;;;;;5033511;28;20030;-59
2022/12/21 09:31:35;;;;;;;47.42;41.15;;;;;;;;;;5031530;28;20041;-58
2022/12/21 09:34:01;;;;;;;44.03;39.38;;;;;;;;;;5032890;28;20029;-56
2022/12/21 09:36:27;;;;;;;44.90;39.47;;;;;;;;;;5033515;28;20021;-62
2022/12/21 09:38:53;;;;;;;45.28;40.47;;;;;;;;;;5032507;28;20041;-62
2022/12/21 09:41:29;;;;;;;45.22;40.28;;;;;;;;;;5030873;28;20067;-61
2022/12/21 09:44:18;;;;;;;42.92;38.47;;;;;;;;;;5032620;28;20326;-63
2022/12/21 09:46:45;;;;;;;44.40;39.63;;;;;;;;;;5032851;28;20041;-61
2022/12/21 09:49:14;;;;;;;45.22;40.33;;;;;;;;;;5015476;28;20025;-62
2022/12/21 09:51:41;;;;;;;43.92;39.10;;;;;;;;;;5015279;28;20030;-59
2022/12/21 09:54:15;;;;;;;44.95;38.90;;;;;;;;;;5032325;28;20052;-62
2022/12/21 09:56:42;;;;;;;43.97;39.22;;;;;;;;;;5033363;28;20177;-58
2022/12/21 09:59:13;;;;;;;47.60;40.67;;;;;;;;;;5014713;28;20056;-57
2022/12/21 10:01:48;;;;;;;43.83;39.38;;;;;;;;;;5033308;28;20570;-60
2022/12/21 10:04:29;;;;;;;44.30;39.70;;;;;;;;;;5013912;28;20088;-53
2022/12/21 10:07:31;;;;;;;44.83;40.22;;;;;;;;;;5032696;28;20443;-53
2022/12/21 10:10:08;;;;;;;43.17;38.33;;;;;;;;;;4971569;28;20034;-53
2022/12/21 10:12:37;;;;;;;42.10;37.90;;;;;;;;;;5007724;28;20415;-55
2022/12/21 10:15:18;;;;;;;44.53;39.80;;;;;;;;;;5032021;28;20334;-58
2022/12/21 10:17:56;;;;;;;43.30;38.65;;;;;;;;;;5032685;28;20079;-54
2022/12/21 10:20:41;;;;;;;43.08;38.47;;;;;;;;;;5032485;28;20101;-57
2022/12/21 10:23:15;;;;;;;41.85;37.05;;;;;;;;;;5031768;28;20043;-63
2022/12/21 10:25:44;;;;;;;45.92;38.35;;;;;;;;;;5032245;28;20022;-59
2022/12/21 10:28:10;;;;;;;;;;;;;;;;;;5032612;28;20025;-58
2022/12/21 10:30:37;;;;;;;39.83;35.28;;;;;;;;;;5032478;28;19968;-58
2022/12/21 10:33:03;;;;;;;43.17;36.10;;;;;;;;;;5031579;28;20040;-54
2022/12/21 10:35:32;;;;;;;39.10;35.17;;;;;;;;;;5032030;28;20029;-60
2022/12/21 10:37:59;;;;;;;46.38;35.17;;;;;;;;;;5014462;28;20021;-56
2022/12/21 10:40:28;;;;;;;36.90;33.03;;;;;;;;;;5012926;28;20697;-64
2022/12/21 10:42:55;;;;;;;40.20;34.20;;;;;;;;;;5014247;28;20025;-55
2022/12/21 10:45:25;;;;;;;38.83;34.83;;;;;;;;;;5013952;28;20079;-51
2022/12/21 10:47:51;;;;;;;37.75;33.95;;;;;;;;;;5014210;28;20574;-58
2022/12/21 10:50:20;;;;;;;36.70;32.70;;;;;;;;;;5032219;28;20033;-60
2022/12/21 10:52:48;;;;;;;39.35;33.05;;;;;;;;;;5013990;28;20119;-60
2022/12/21 10:55:14;;;;;;;37.10;33.20;;;;;;;;;;5031304;28;20029;-62
2022/12/21 10:57:40;;;;;;;37.05;33.13;;;;;;;;;;5014177;28;20026;-61
2022/12/21 11:00:21;;;;;;;35.00;31.25;;;;;;;;;;5013499;28;20390;-58
2022/12/21 11:02:48;;;;;;;35.90;32.08;;;;;;;;;;5013923;28;20494;-54
2022/12/21 11:05:28;;;;;;;38.42;31.15;;;;;;;;;;5030223;28;20116;-60
2022/12/21 11:08:10;;;;;;;35.40;30.38;;;;;;;;;;5029729;28;20041;-58
2022/12/21 11:10:36;;;;;;;37.05;30.13;;;;;;;;;;5031380;28;20029;-60
2022/12/21 11:13:05;;;;;;;32.58;29.02;;;;;;;;;;5030854;28;20049;-57
2022/12/21 11:15:31;;;;;;;37.97;29.52;;;;;;;;;;5014175;28;20159;-62
2022/12/21 11:17:57;;;;;;;33.83;29.85;;;;;;;;;;5014023;28;20037;-60
2022/12/21 11:20:24;;;;;;;35.47;31.35;;;;;;;;;;5013867;28;20036;-62
2022/12/21 11:22:51;;;;;;;40.47;32.38;;;;;;;;;;5026946;28;20021;-62
2022/12/21 11:25:19;;;;;;;37.03;32.92;;;;;;;;;;5030590;28;20156;-63
2022/12/21 11:27:46;;;;;;;40.13;32.67;;;;;;;;;;5012864;28;20030;-61
2022/12/21 11:30:18;;;;;;;38.08;31.33;;;;;;;;;;4677514;28;10000269;-62
2022/12/21 11:32:46;;;;;;;36.88;31.05;;;;;;;;;;5028240;28;20397;-60
2022/12/21 11:35:28;;;;;;;37.97;31.55;;;;;;;;;;5027532;28;20067;-64
2022/12/21 11:37:55;;;;;;;33.10;29.52;;;;;;;;;;5010409;28;20026;-62
2022/12/21 11:40:24;;;;;;;36.65;31.08;;;;;;;;;;5026339;28;20033;-63
2022/12/21 11:42:56;;;;;;;35.28;31.33;;;;;;;;;;5028317;28;20018;-63
2022/12/21 11:45:42;;;;;;;33.40;29.15;;;;;;;;;;5009583;28;20036;-63
2022/12/21 11:48:17;;;;;;;34.28;27.95;;;;;;;;;;5010380;28;20026;-63
2022/12/21 11:50:55;;;;;;;32.30;28.90;;;;;;;;;;5028383;28;20078;-60
2022/12/21 11:53:30;;;;;;;36.38;29.13;;;;;;;;;;5027095;28;20152;-59
2022/12/21 11:56:09;;;;;;;31.58;28.15;;;;;;;;;;5027885;28;20104;-57
2022/12/21 11:58:46;;;;;;;34.78;28.27;;;;;;;;;;5010125;28;20120;-58
2022/12/21 12:01:45;;;;;;;30.98;27.02;;;;;;;;;;5009996;28;20037;-63
2022/12/21 12:04:17;;;;;;;32.25;27.77;;;;;;;;;;5005362;23;20148;-61
2022/12/21 12:06:58;;;;;;;32.72;28.15;;;;;;;;;;5027409;28;20048;-65
2022/12/21 12:09:24;;;;;;;29.77;26.05;;;;;;;;;;5026048;28;20502;-66
2022/12/21 12:11:56;;;;;;;33.20;26.95;;;;;;;;;;5028336;28;20044;-65
2022/12/21 12:14:30;;;;;;;29.70;25.40;;;;;;;;;;5024966;28;20053;-64
2022/12/21 12:16:59;;;;;;;33.05;27.02;;;;;;;;;;5018426;28;20076;-63
2022/12/21 12:19:34;;;;;;;31.92;28.48;;;;;;;;;;5026175;28;20029;-65
2022/12/21 12:22:03;;;;;;;38.42;29.92;;;;;;;;;;5010855;28;20034;-64
2022/12/21 12:24:43;;;;;;;35.42;30.00;;;;;;;;;;5030707;28;20036;-63
2022/12/21 12:27:27;;;;;;;32.40;28.05;;;;;;;;;;5031269;28;20464;-65
2022/12/21 12:29:53;;;;;;;37.20;30.33;;;;;;;;;;5030737;28;20611;-66
2022/12/21 12:32:38;;;;;;;33.20;29.70;;;;;;;;;;5031644;28;20578;-65
2022/12/21 12:35:07;;;;;;;36.72;31.00;;;;;;;;;;5031127;28;20030;-64
2022/12/21 12:37:52;;;;;;;34.85;30.05;;;;;;;;;;5031226;28;20053;-61
2022/12/21 12:40:18;;;;;;;36.33;31.33;;;;;;;;;;5031218;28;20083;-65
2022/12/21 12:42:57;;;;;;;36.72;29.23;;;;;;;;;;5031373;28;20025;-65
2022/12/21 12:45:23;;;;;;;;;;;;;;;;;;5031178;28;20036;-63
2022/12/21 12:47:55;;;;;;;49.60;33.22;;;;;;;;;;5031534;28;19909;-62
2022/12/21 12:50:26;;;;;;;42.45;31.90;;;;;;;;;;5013032;28;20033;-64
2022/12/21 12:52:52;;;;;;;37.80;31.20;;;;;;;;;;5030601;28;20037;-63
2022/12/21 12:55:18;;;;;;;36.60;29.88;;;;;;;;;;5012799;28;20029;-61
2022/12/21 12:57:47;;;;;;;48.38;33.83;;;;;;;;;;5031040;28;20069;-63
2022/12/21 13:00:18;;;;;;;44.80;32.10;;;;;;;;;;5031110;28;20095;-64
2022/12/21 13:02:50;;;;;;;39.80;28.38;;;;;;;;;;5013321;28;20065;-63
2022/12/21 13:05:24;;;;;;;38.78;29.20;;;;;;;;;;5029777;28;20409;-63
2022/12/21 13:08:08;;;;;;;46.00;29.52;;;;;;;;;;5011178;28;20030;-64
2022/12/21 13:10:54;;;;;;;40.60;27.05;;;;;;;;;;5010771;28;20030;-64
2022/12/21 13:13:58;;;;;;;33.92;26.58;;;;;;;;;;5009901;28;20040;-64
2022/12/21 13:16:34;;;;;;;39.58;30.58;;;;;;;;;;4951246;28;20054;-63
2022/12/21 13:19:03;;;;;;;34.58;25.70;;;;;;;;;;4957970;28;20087;-64
2022/12/21 13:21:31;;;;;;;37.28;26.60;;;;;;;;;;4971595;28;20148;-62
2022/12/21 13:23:57;;;;;;;43.00;26.02;;;;;;;;;;5013164;28;20025;-65
2022/12/21 13:26:28;;;;;;;32.60;24.25;;;;;;;;;;5014117;28;20104;-63
2022/12/21 13:29:04;;;;;;;36.88;23.58;;;;;;;;;;5018238;28;20032;-64
2022/12/21 13:31:38;;;;;;;37.67;25.35;;;;;;;;;;5034194;28;20393;-64
2022/12/21 13:34:07;;;;;;;47.50;24.27;;;;;;;;;;5032105;28;20017;-62
2022/12/21 13:36:53;;;;;;;35.08;23.50;;;;;;;;;;5034248;28;20028;-65
2022/12/21 13:39:27;;;;;;;35.38;23.25;;;;;;;;;;5033301;28;20050;-64
2022/12/21 13:41:58;;;;;;;30.70;22.27;;;;;;;;;;5016737;28;20025;-64
2022/12/21 13:44:24;;;;;;;35.38;22.60;;;;;;;;;;5031527;28;20033;-62
2022/12/21 13:46:51;;;;;;;33.67;24.85;;;;;;;;;;5032948;28;20027;-64
2022/12/21 13:49:23;;;;;;;33.20;23.08;;;;;;;;;;5030704;28;20022;-65
2022/12/21 13:52:05;;;;;;;35.45;23.42;;;;;;;;;;5024298;28;20076;-65
2022/12/21 13:54:41;;;;;;;32.95;21.60;;;;;;;;;;5021941;28;20087;-65
2022/12/21 13:57:25;;;;;;;30.00;21.27;;;;;;;;;;5020443;28;20037;-64
2022/12/21 13:59:57;;;;;;;35.40;21.35;;;;;;;;;;5013182;28;20033;-65
2022/12/21 14:02:23;;;;;;;37.08;22.05;;;;;;;;;;5013270;28;20103;-65
2022/12/21 14:04:54;;;;;;;32.78;21.08;;;;;;;;;;4995007;28;20030;-64
2022/12/21 14:07:23;;;;;;;29.33;19.33;;;;;;;;;;5013120;28;20026;-62
2022/12/21 14:09:52;;;;;;;34.67;21.42;;;;;;;;;;5013194;28;20352;-63
2022/12/21 14:12:24;;;;;;;32.08;20.00;;;;;;;;;;5012703;28;20490;-63
2022/12/21 14:15:09;;;;;;;27.48;18.73;;;;;;;;;;5011915;28;20030;-64
2022/12/21 14:17:41;;;;;;;33.22;21.13;;;;;;;;;;5012949;28;20030;-64
2022/12/21 14:20:09;;;;;;;26.85;19.00;;;;;;;;;;5012867;28;20394;-63
2022/12/21 14:22:39;;;;;;;31.13;20.30;;;;;;;;;;5012903;28;20022;-65
2022/12/21 14:25:09;;;;;;;33.42;20.00;;;;;;;;;;5012297;28;20081;-63
2022/12/21 14:27:36;;;;;;;29.77;19.02;;;;;;;;;;4995213;28;20055;-63
2022/12/21 14:30:20;;;;;;;37.25;21.42;;;;;;;;;;5025664;28;20017;-63
2022/12/21 14:32:49;;;;;;;31.20;19.45;;;;;;;;;;5032152;28;20120;-64
2022/12/21 14:35:26;;;;;;;35.67;20.55;;;;;;;;;;5032146;28;20397;-62
2022/12/21 14:38:10;;;;;;;31.67;18.75;;;;;;;;;;5032584;28;20512;-64
2022/12/21 14:40:55;;;;;;;31.38;20.90;;;;;;;;;;5030378;28;20037;-65